Language selection

Features

My Weather Profile Weather Topics  | 

West Coast Haida Gwaii - northern half: Past 24 Hour Conditions

 

West Sea Otter - 46204

06:00 PM PST 23 January 2020Buoy position: 51.23N 128.46W
Disclaimer

This table is a summary of hourly weather conditions for the past 24 hours.
Please note that these observations might not always be representative of weather conditions over their associated marine area.

Date / Time
(PST)
Wind(knots) Wave height(m) Wave period(s) Pressure(kPa) Air tempC) Water tempC)
23 January 2020
18:00 SE 10 gust 12 2.2 9.0 100.4 8 8
17:00 SSE 17 gust 22 2.2 9.0 100.4 9 8
16:00 SSE 16 gust 19 2.2 10.0 100.4 9 8
15:00 SSE 17 gust 22 2.1 10.0 100.4 9 8
14:00 SSE 16 gust 17 2.2 10.0 100.5 9 8
13:00 SSE 13 gust 17 2.1 10.0 100.5 9 8
12:00 S 13 gust 17 2.3 9.0 100.5 9 8
11:00 S 16 gust 19 2.0 9.0 100.5 8 8
10:00 S 16 gust 19 1.9 8.0 100.4 8 8
9:00 SSW 13 gust 17 1.8 8.0 100.4 8 8
8:00 SSW 12 gust 16 1.9 8.0 100.3 8 8
7:00 SSE 13 gust 16 2.1 7.0 100.2 8 8
6:00 SE 16 gust 19 2.1 7.0 100.1 8 8
5:00 SE 16 gust 17 2.5 7.0 100.0 8 8
4:00 SE 23 gust 29 3.0 7.0 99.9 7 8
3:00 SE 27 gust 37 3.4 8.0 99.8 7 8
2:00 SE 33 gust 43 3.6 8.0 99.8 7 8
1:00 SE 33 gust 43 3.7 8.0 99.8 7 8
0:00 SE 33 gust 41 4.1 8.0 99.8 7 8
22 January 2020
23:00 SE 33 gust 41 3.8 8.0 99.8 7 8
22:00 SE 33 gust 41 3.9 8.0 99.9 7 8
21:00 SE 35 gust 43 4.2 8.0 99.9 7 8
20:00 SE 35 gust 45 4.3 8.0 99.9 7 8
19:00 SE 35 gust 45 4.5 8.0 99.8 8 8
18:00 SE 39 gust 49 4.4 8.0 99.9 7 8

Zoom-in to make a selection

Map of Pacific - North Coast marine weather areas Middle Nomad - 46004 South Nomad - 46036 Dixon Entrance Central - 46145 South Moresby - 46147 Nanakwa Shoal - 46181 North Hecate Strait - 46183 North Nomad - 46184 South Hecate Strait - 46185 West Sea Otter - 46204 West Dixon Entrance - 46205 East Dellwood - 46207 West Moresby - 46208 Sartine Island Cape St.James Kindakun Rocks Langara Island Masset Municipal Airport Rose Spit Sandspit Airport Bella Bella Airport Bella Coola Airport Bonilla Island Cathedral Point Cumshewa Island Grey Islet Holland Rock Lucy Islands Lightstation Prince Rupert Airport
Legend:
buoy Buoy
land station Land Station

Pacific - North Coast Area

Another Region

What we are doing

Date modified: